Lakeway's Hourly Summary for Thursday, May 10, 2018
Hour Temp
(f)
RH
(%)
Solar Rad.
(MJ/m2)
Rainfall
(in)
Wind
(mph)
5/10/2018 12:00 AM 71 68 0 0 3.22
5/10/2018 1:00 AM 69 78 0 0 3.22
5/10/2018 2:00 AM 67 87 0 0 3.12
5/10/2018 3:00 AM 67 90 0 0 2.5
5/10/2018 4:00 AM 67 91 0 0 2.08
5/10/2018 5:00 AM 67 91 0 0 2.3
5/10/2018 6:00 AM 66 94 0.01 0 2.3
5/10/2018 7:00 AM 67 94 0.13 0 1.66
5/10/2018 8:00 AM 69 91 0.34 0 3.4
5/10/2018 9:00 AM 69 81 0.34 0 3.4
5/10/2018 10:00 AM 74 71 1.6 0 3.85
5/10/2018 11:00 AM 79 57 3.14 0 3.21
5/10/2018 12:00 PM 81 49 3.14 0 3.18
5/10/2018 1:00 PM 83 43 3.45 0 2.89
5/10/2018 2:00 PM 84 40 3.45 0 2.98
5/10/2018 3:00 PM 85 37 3.3 0 3.5
5/10/2018 4:00 PM 86 37 3.04 0 3.68
5/10/2018 5:00 PM 86 37 2.53 0 3.9
5/10/2018 6:00 PM 86 37 1.93 0 3.9
5/10/2018 7:00 PM 85 36 1.18 0 3.6
5/10/2018 8:00 PM 83 39 0.3 0 2.69
5/10/2018 9:00 PM 80 52 0.01 0 2.69
5/10/2018 10:00 PM 77 67 0 0 3.49
5/10/2018 11:00 PM 75 74 0 0 3.83
Data Summary 75 64 27.89 0.00 3.11